Time;durP1;ratioP1;P1;durP2;ratioP2;P2;SDS_P1;SDS_P2;PMS_P1;PMS_P2;Temp;Humidity;BMP_temperature;BMP_pressure;BME280_temperature;BME280_humidity;BME280_pressure;Samples;Min_cycle;Max_cycle;Signal;HPM_P1;HPM_P2
2022/08/12 00:43:16;;;;;;;11.32;10.63;;;;;;;;;;4891494;29;20090;-70
2022/08/12 00:48:27;;;;;;;11.50;10.70;;;;;;;;;;4895483;29;20060;-71
2022/08/12 00:50:55;;;;;;;11.77;10.88;;;;;;;;;;4892168;29;20123;-70
2022/08/12 00:53:22;;;;;;;11.23;10.25;;;;;;;;;;4893885;29;20396;-70
2022/08/12 00:55:50;;;;;;;11.20;10.27;;;;;;;;;;4893332;29;20036;-70
2022/08/12 00:58:21;;;;;;;11.68;10.60;;;;;;;;;;4893548;29;20044;-70
2022/08/12 01:00:48;;;;;;;11.30;10.50;;;;;;;;;;4893459;29;20123;-70
2022/08/12 01:03:18;;;;;;;11.15;10.27;;;;;;;;;;4893883;29;20044;-69
2022/08/12 01:11:31;;;;;;;11.35;10.43;;;;;;;;;;4890642;29;20071;-70
2022/08/12 01:13:59;;;;;;;11.00;10.13;;;;;;;;;;4894677;29;20088;-70
2022/08/12 01:16:25;;;;;;;11.05;10.18;;;;;;;;;;4891918;29;20041;-69
2022/08/12 01:18:53;;;;;;;11.00;10.30;;;;;;;;;;4894805;29;20445;-70
2022/08/12 01:21:50;;;;;;;11.07;10.37;;;;;;;;;;4890928;29;20537;-70
2022/08/12 01:24:54;;;;;;;10.98;10.32;;;;;;;;;;4893823;29;20123;-70
2022/08/12 01:27:21;;;;;;;11.27;10.50;;;;;;;;;;4894174;29;20048;-70
2022/08/12 01:29:50;;;;;;;11.77;10.73;;;;;;;;;;4890250;29;20040;-70
2022/08/12 01:32:19;;;;;;;11.00;10.30;;;;;;;;;;4894121;29;20040;-69
2022/08/12 01:34:56;;;;;;;11.27;10.23;;;;;;;;;;4893716;29;20655;-69
2022/08/12 01:37:25;;;;;;;11.40;10.63;;;;;;;;;;4892348;29;20128;-69
2022/08/12 01:39:54;;;;;;;11.18;10.48;;;;;;;;;;4891662;29;20071;-69
2022/08/12 01:42:21;;;;;;;11.35;10.55;;;;;;;;;;4896974;29;20040;-70
2022/08/12 01:44:49;;;;;;;11.00;10.30;;;;;;;;;;4898743;29;20040;-70
2022/08/12 01:47:31;;;;;;;10.45;9.82;;;;;;;;;;4894388;29;20073;-70
2022/08/12 01:49:59;;;;;;;11.00;10.20;;;;;;;;;;4895409;29;20130;-70
2022/08/12 01:52:33;;;;;;;11.18;10.38;;;;;;;;;;4896456;29;20136;-70
2022/08/12 01:55:00;;;;;;;11.55;10.48;;;;;;;;;;4895599;29;20108;-69
2022/08/12 01:57:40;;;;;;;11.30;10.60;;;;;;;;;;4895256;29;20127;-69
2022/08/12 02:00:12;;;;;;;11.45;10.65;;;;;;;;;;4895121;29;20040;-69
2022/08/12 02:02:52;;;;;;;10.77;10.07;;;;;;;;;;4894434;29;20088;-69
2022/08/12 02:11:34;;;;;;;11.48;10.55;;;;;;;;;;4899193;29;20040;-70
2022/08/12 02:14:30;;;;;;;11.65;10.70;;;;;;;;;;4893808;29;20039;-70
2022/08/12 02:17:31;;;;;;;11.13;10.32;;;;;;;;;;4895598;29;20087;-70
2022/08/12 02:20:11;;;;;;;11.38;10.68;;;;;;;;;;4894765;29;20041;-70
2022/08/12 02:22:43;;;;;;;11.20;10.40;;;;;;;;;;4893420;29;20035;-70
2022/08/12 02:25:17;;;;;;;11.38;10.57;;;;;;;;;;4894616;29;20099;-70
2022/08/12 02:27:46;;;;;;;11.30;10.65;;;;;;;;;;4895090;29;20620;-70
2022/08/12 02:30:15;;;;;;;11.23;10.60;;;;;;;;;;4894432;29;20040;-69
2022/08/12 02:32:43;;;;;;;11.35;10.32;;;;;;;;;;4893512;29;20548;-70
2022/08/12 02:35:18;;;;;;;11.68;10.85;;;;;;;;;;4896088;29;20524;-70
2022/08/12 02:37:45;;;;;;;11.30;10.60;;;;;;;;;;4898482;29;20041;-69
2022/08/12 02:40:13;;;;;;;11.27;10.57;;;;;;;;;;4896304;29;20689;-69
2022/08/12 02:42:52;;;;;;;11.57;10.57;;;;;;;;;;4895369;29;20033;-69
2022/08/12 02:45:24;;;;;;;12.30;11.00;;;;;;;;;;4892657;29;20032;-69
2022/08/12 02:47:54;;;;;;;10.88;10.20;;;;;;;;;;4895585;29;20099;-69
2022/08/12 02:50:24;;;;;;;11.32;10.43;;;;;;;;;;4893163;29;20044;-69
2022/08/12 02:52:51;;;;;;;11.20;10.50;;;;;;;;;;4888574;29;20112;-69
2022/08/12 02:55:20;;;;;;;11.18;10.48;;;;;;;;;;4893940;29;20036;-69
2022/08/12 02:57:45;;;;;;;;;;;;;;;;;;4896732;29;20040;-69
2022/08/12 03:00:14;;;;;;;11.18;10.48;;;;;;;;;;4895995;29;19994;-69
2022/08/12 03:02:45;;;;;;;11.50;10.60;;;;;;;;;;4896203;29;20524;-69
2022/08/12 03:05:14;;;;;;;11.63;10.82;;;;;;;;;;4891669;29;20152;-69
2022/08/12 03:07:46;;;;;;;11.57;10.88;;;;;;;;;;4896008;29;20032;-68
2022/08/12 03:10:13;;;;;;;12.05;11.10;;;;;;;;;;4896183;29;20100;-69
2022/08/12 03:12:42;;;;;;;11.45;10.65;;;;;;;;;;4892939;29;20135;-70
2022/08/12 03:15:14;;;;;;;12.40;11.60;;;;;;;;;;4900804;29;20075;-69
2022/08/12 03:17:42;;;;;;;11.50;10.80;;;;;;;;;;4896639;29;20544;-69
2022/08/12 03:20:10;;;;;;;11.50;10.80;;;;;;;;;;4894761;29;20068;-69
2022/08/12 03:22:41;;;;;;;11.57;10.77;;;;;;;;;;4894111;29;20056;-69
2022/08/12 03:25:23;;;;;;;11.70;10.80;;;;;;;;;;4897563;29;20062;-68
2022/08/12 03:27:54;;;;;;;11.77;10.98;;;;;;;;;;4893287;29;20036;-69
2022/08/12 03:30:24;;;;;;;11.95;11.15;;;;;;;;;;4892377;29;20037;-69
2022/08/12 03:32:52;;;;;;;12.30;11.50;;;;;;;;;;4897529;29;20047;-69
2022/08/12 03:35:26;;;;;;;11.63;10.93;;;;;;;;;;4891810;29;20033;-69
2022/08/12 03:37:56;;;;;;;11.73;10.90;;;;;;;;;;4893678;29;20069;-69
2022/08/12 04:02:40;;;;;;;12.30;11.50;;;;;;;;;;4892779;29;20039;-69
2022/08/12 04:05:11;;;;;;;12.05;11.30;;;;;;;;;;4891787;29;20036;-69
2022/08/12 04:07:37;;;;;;;11.98;11.18;;;;;;;;;;4894252;29;20045;-69
2022/08/12 04:10:04;;;;;;;12.68;11.68;;;;;;;;;;4893673;29;20033;-69
2022/08/12 04:15:18;;;;;;;12.27;11.38;;;;;;;;;;4892790;29;20516;-69
2022/08/12 04:17:46;;;;;;;11.52;10.93;;;;;;;;;;4894689;29;20036;-69
2022/08/12 04:20:14;;;;;;;12.27;11.30;;;;;;;;;;4894270;29;20100;-69
2022/08/12 04:22:39;;;;;;;12.52;11.65;;;;;;;;;;4895856;29;20081;-69
2022/08/12 04:25:07;;;;;;;12.27;11.48;;;;;;;;;;4892738;29;20063;-69
2022/08/12 04:27:33;;;;;;;12.50;11.70;;;;;;;;;;4894375;29;20437;-69
2022/08/12 04:30:00;;;;;;;12.38;11.52;;;;;;;;;;4893994;29;20144;-69
2022/08/12 04:32:25;;;;;;;12.40;11.50;;;;;;;;;;4889306;29;20115;-69
2022/08/12 04:34:51;;;;;;;11.93;11.23;;;;;;;;;;4892472;29;20144;-69
2022/08/12 04:37:17;;;;;;;12.23;11.43;;;;;;;;;;4893096;29;20124;-69
2022/08/12 04:39:44;;;;;;;12.40;11.40;;;;;;;;;;4898173;29;20063;-69
2022/08/12 04:42:09;;;;;;;12.23;11.43;;;;;;;;;;4896637;29;20040;-69
2022/08/12 04:44:35;;;;;;;12.27;11.27;;;;;;;;;;4892263;29;20029;-69
2022/08/12 04:47:01;;;;;;;12.50;11.60;;;;;;;;;;4896468;29;20039;-69
2022/08/12 04:49:28;;;;;;;11.93;11.13;;;;;;;;;;4898258;29;20188;-69
2022/08/12 04:51:55;;;;;;;11.90;11.10;;;;;;;;;;4894921;29;20028;-69
2022/08/12 04:54:22;;;;;;;12.20;11.30;;;;;;;;;;4888103;29;20516;-69
2022/08/12 04:56:52;;;;;;;12.15;11.25;;;;;;;;;;4891284;29;20675;-69
2022/08/12 04:59:18;;;;;;;12.20;11.40;;;;;;;;;;4893730;29;20060;-69
2022/08/12 05:01:50;;;;;;;12.13;11.18;;;;;;;;;;4896126;29;20044;-69
2022/08/12 05:04:18;;;;;;;13.13;11.77;;;;;;;;;;4890303;29;20036;-69
2022/08/12 05:06:44;;;;;;;12.93;11.88;;;;;;;;;;4894684;29;20036;-69
2022/08/12 05:09:09;;;;;;;12.40;11.60;;;;;;;;;;4893088;29;20041;-69
2022/08/12 05:11:36;;;;;;;13.32;12.02;;;;;;;;;;4890856;29;20052;-69
2022/08/12 05:14:02;;;;;;;12.70;11.73;;;;;;;;;;4894118;29;20025;-69
2022/08/12 05:16:29;;;;;;;12.85;11.65;;;;;;;;;;4893095;29;20078;-68
2022/08/12 05:18:55;;;;;;;12.93;11.80;;;;;;;;;;4892655;29;20039;-68
2022/08/12 05:21:20;;;;;;;12.80;11.90;;;;;;;;;;4890805;29;20045;-69
2022/08/12 05:23:46;;;;;;;13.23;12.02;;;;;;;;;;4893329;29;20604;-69
2022/08/12 05:26:12;;;;;;;12.85;11.90;;;;;;;;;;4893578;29;20047;-69
2022/08/12 05:28:38;;;;;;;12.40;11.60;;;;;;;;;;4888990;29;20114;-66
2022/08/12 05:31:03;;;;;;;12.30;11.50;;;;;;;;;;4889134;29;20131;-67
2022/08/12 05:33:37;;;;;;;12.27;11.48;;;;;;;;;;4893777;29;20043;-71
2022/08/12 05:36:06;;;;;;;12.93;11.80;;;;;;;;;;4896390;29;20040;-71
2022/08/12 05:41:19;;;;;;;12.68;11.88;;;;;;;;;;4892042;29;20692;-70
2022/08/12 05:43:54;;;;;;;12.60;11.75;;;;;;;;;;4895788;29;20637;-70
2022/08/12 05:46:20;;;;;;;12.63;11.73;;;;;;;;;;4890494;29;20048;-70
2022/08/12 05:48:48;;;;;;;12.25;11.43;;;;;;;;;;4891550;29;20064;-70
2022/08/12 05:51:14;;;;;;;12.63;11.73;;;;;;;;;;4891097;29;20576;-71
2022/08/12 05:53:40;;;;;;;12.05;11.27;;;;;;;;;;4892355;29;20120;-71
2022/08/12 05:56:18;;;;;;;12.30;11.50;;;;;;;;;;4891267;29;20032;-76
2022/08/12 05:58:44;;;;;;;12.43;11.52;;;;;;;;;;4891613;29;20060;-76
2022/08/12 06:01:10;;;;;;;12.50;11.55;;;;;;;;;;4892168;29;20060;-76
2022/08/12 06:03:35;;;;;;;11.75;10.90;;;;;;;;;;4893442;29;20040;-76
2022/08/12 06:06:02;;;;;;;12.75;11.88;;;;;;;;;;4891564;29;20040;-76
2022/08/12 06:08:27;;;;;;;12.73;11.60;;;;;;;;;;4890917;29;20471;-76
2022/08/12 06:10:55;;;;;;;12.43;11.43;;;;;;;;;;4891225;29;20080;-76
2022/08/12 06:13:21;;;;;;;12.52;11.73;;;;;;;;;;4891679;29;20036;-76
2022/08/12 06:15:48;;;;;;;12.77;11.68;;;;;;;;;;4890314;29;20044;-76
2022/08/12 06:18:13;;;;;;;11.88;11.18;;;;;;;;;;4891433;29;20037;-77
2022/08/12 06:20:39;;;;;;;12.15;11.25;;;;;;;;;;4891189;29;20040;-76
2022/08/12 06:23:05;;;;;;;12.40;11.55;;;;;;;;;;4888916;29;20064;-75
2022/08/12 06:25:33;;;;;;;12.95;12.05;;;;;;;;;;4894183;29;20040;-75
2022/08/12 06:28:00;;;;;;;12.98;12.00;;;;;;;;;;4892191;29;20043;-75
2022/08/12 06:30:27;;;;;;;12.15;11.35;;;;;;;;;;4909141;29;20040;-76
2022/08/12 06:32:53;;;;;;;13.07;11.85;;;;;;;;;;4908416;29;20052;-75
2022/08/12 06:35:19;;;;;;;12.80;11.90;;;;;;;;;;4896693;29;20032;-76
2022/08/12 06:37:48;;;;;;;12.63;11.60;;;;;;;;;;4895608;29;20449;-76
2022/08/12 06:42:46;;;;;;;12.23;11.32;;;;;;;;;;4896469;29;20084;-76
2022/08/12 06:43:04;;;;;;;12.23;11.32;;;;;;;;;;4893978;29;20556;-76
2022/08/12 06:45:30;;;;;;;13.02;11.95;;;;;;;;;;4895304;29;20500;-77
2022/08/12 06:47:58;;;;;;;12.82;12.02;;;;;;;;;;4898261;29;20087;-77
2022/08/12 06:50:25;;;;;;;12.55;11.40;;;;;;;;;;4895874;29;20127;-76
2022/08/12 06:52:51;;;;;;;12.27;11.27;;;;;;;;;;4894922;29;20639;-77
2022/08/12 06:55:24;;;;;;;12.07;11.05;;;;;;;;;;4897118;29;20064;-77
2022/08/12 06:57:54;;;;;;;12.85;11.55;;;;;;;;;;4896310;29;20500;-77
2022/08/12 07:00:25;;;;;;;11.95;11.25;;;;;;;;;;4892948;29;20083;-77
2022/08/12 07:02:54;;;;;;;12.82;11.75;;;;;;;;;;4896892;29;20040;-77
2022/08/12 07:05:23;;;;;;;12.70;11.40;;;;;;;;;;4894670;29;20067;-76
2022/08/12 07:07:51;;;;;;;12.10;11.30;;;;;;;;;;4894449;29;20047;-71
2022/08/12 07:10:18;;;;;;;12.75;11.60;;;;;;;;;;4896757;29;20064;-73
2022/08/12 07:12:44;;;;;;;12.45;11.45;;;;;;;;;;4900403;29;20782;-73
2022/08/12 07:15:10;;;;;;;11.70;10.80;;;;;;;;;;4893811;29;20041;-73
2022/08/12 07:17:39;;;;;;;12.85;11.85;;;;;;;;;;4894318;29;20703;-73
2022/08/12 07:20:08;;;;;;;;;;;;;;;;;;4897045;29;20081;-72
2022/08/12 07:22:33;;;;;;;12.30;11.50;;;;;;;;;;4895186;29;19958;-71
2022/08/12 07:27:45;;;;;;;11.73;11.02;;;;;;;;;;4897588;29;20036;-76
2022/08/12 07:30:11;;;;;;;12.13;11.25;;;;;;;;;;4897265;29;20524;-72
2022/08/12 07:32:38;;;;;;;12.73;11.70;;;;;;;;;;4899654;29;20036;-75
2022/08/12 07:35:04;;;;;;;12.02;11.00;;;;;;;;;;4893306;29;20400;-69
2022/08/12 07:37:30;;;;;;;12.05;11.25;;;;;;;;;;4892771;29;20040;-69
2022/08/12 07:39:57;;;;;;;12.63;11.50;;;;;;;;;;4895833;29;20029;-69
2022/08/12 07:42:22;;;;;;;12.88;11.73;;;;;;;;;;4904966;23;21232;-71
2022/08/12 07:44:48;;;;;;;11.98;11.07;;;;;;;;;;4920548;29;20078;-71
2022/08/12 07:47:14;;;;;;;11.60;10.90;;;;;;;;;;4910996;29;20040;-72
2022/08/12 07:49:39;;;;;;;12.10;11.20;;;;;;;;;;4911382;29;20546;-69
2022/08/12 07:52:05;;;;;;;11.35;10.65;;;;;;;;;;4910357;29;20719;-70
2022/08/12 07:54:30;;;;;;;11.77;10.70;;;;;;;;;;4911177;29;20032;-69
2022/08/12 07:56:57;;;;;;;11.57;10.77;;;;;;;;;;4912461;29;20068;-67
2022/08/12 07:59:23;;;;;;;11.65;10.90;;;;;;;;;;4910050;29;20067;-69
2022/08/12 08:01:53;;;;;;;11.07;10.38;;;;;;;;;;4911583;29;20156;-70
2022/08/12 08:07:03;;;;;;;10.98;10.27;;;;;;;;;;4911613;29;20124;-69
2022/08/12 08:09:28;;;;;;;11.32;10.45;;;;;;;;;;4910250;29;20119;-68
2022/08/12 08:14:39;;;;;;;11.00;10.20;;;;;;;;;;4911235;29;20043;-67
2022/08/12 08:17:05;;;;;;;11.05;10.18;;;;;;;;;;4907492;29;20063;-67
2022/08/12 08:19:32;;;;;;;11.23;10.23;;;;;;;;;;4909161;29;20036;-66
2022/08/12 08:21:58;;;;;;;11.15;10.32;;;;;;;;;;4908216;29;20408;-69
2022/08/12 08:24:26;;;;;;;10.77;10.13;;;;;;;;;;4905789;29;20040;-69
2022/08/12 08:26:55;;;;;;;10.70;9.90;;;;;;;;;;4903123;29;20068;-71
2022/08/12 08:29:23;;;;;;;10.98;9.98;;;;;;;;;;4911368;29;20039;-70
2022/08/12 08:31:53;;;;;;;11.00;10.23;;;;;;;;;;4911253;29;20039;-71
2022/08/12 08:34:20;;;;;;;10.38;9.60;;;;;;;;;;4909491;29;20151;-71
2022/08/12 08:36:46;;;;;;;10.40;9.45;;;;;;;;;;4911176;29;20047;-71
2022/08/12 08:39:13;;;;;;;10.55;9.80;;;;;;;;;;4910554;29;20043;-71
2022/08/12 08:44:23;;;;;;;10.80;10.00;;;;;;;;;;4909513;29;20217;-70
2022/08/12 08:46:49;;;;;;;10.80;10.10;;;;;;;;;;4909786;29;20044;-69
2022/08/12 08:49:16;;;;;;;11.00;10.30;;;;;;;;;;4910101;29;20088;-70
2022/08/12 08:51:46;;;;;;;10.27;9.48;;;;;;;;;;4906763;29;20399;-69
2022/08/12 08:54:12;;;;;;;10.00;9.27;;;;;;;;;;4910394;29;20047;-69
2022/08/12 08:56:42;;;;;;;10.65;9.93;;;;;;;;;;4909917;29;20036;-69
2022/08/12 08:59:10;;;;;;;10.43;9.70;;;;;;;;;;4910459;29;20107;-68
2022/08/12 09:01:36;;;;;;;9.97;9.37;;;;;;;;;;4908809;29;20036;-69
2022/08/12 09:04:02;;;;;;;10.27;9.57;;;;;;;;;;4910639;29;20113;-67
2022/08/12 09:06:28;;;;;;;10.43;9.82;;;;;;;;;;4910357;29;20046;-68
2022/08/12 09:08:53;;;;;;;10.60;9.90;;;;;;;;;;4909166;29;20036;-70
2022/08/12 09:14:06;;;;;;;10.68;9.98;;;;;;;;;;4909610;29;20039;-71
2022/08/12 09:16:39;;;;;;;10.20;9.50;;;;;;;;;;4907329;29;20039;-71
2022/08/12 09:19:07;;;;;;;10.68;9.80;;;;;;;;;;4906637;29;20542;-70
2022/08/12 09:21:33;;;;;;;;;;;;;;;;;;4907345;29;20128;-70
2022/08/12 09:24:00;;;;;;;10.55;9.55;;;;;;;;;;4910436;29;19967;-69
2022/08/12 09:26:29;;;;;;;9.73;9.02;;;;;;;;;;4906994;29;20050;-70
2022/08/12 09:28:56;;;;;;;10.18;9.27;;;;;;;;;;4910023;29;20036;-70
2022/08/12 09:31:22;;;;;;;10.10;9.40;;;;;;;;;;4910083;29;20032;-69
2022/08/12 09:33:49;;;;;;;10.45;9.70;;;;;;;;;;4910135;29;20114;-70
2022/08/12 09:36:19;;;;;;;10.55;9.75;;;;;;;;;;4909059;29;20032;-71
2022/08/12 09:38:45;;;;;;;10.75;10.05;;;;;;;;;;4910228;29;20516;-70
2022/08/12 09:41:10;;;;;;;9.93;9.23;;;;;;;;;;4910204;29;20040;-71
2022/08/12 09:46:21;;;;;;;10.00;9.40;;;;;;;;;;4908572;29;20035;-71
2022/08/12 09:48:46;;;;;;;10.27;9.60;;;;;;;;;;4910138;29;20407;-70
2022/08/12 09:51:12;;;;;;;10.10;9.30;;;;;;;;;;4909910;29;20079;-68
2022/08/12 09:53:39;;;;;;;9.88;9.23;;;;;;;;;;4909157;29;20047;-69
2022/08/12 09:56:07;;;;;;;10.30;9.50;;;;;;;;;;4909484;29;20063;-70
2022/08/12 09:58:33;;;;;;;10.63;9.67;;;;;;;;;;4910323;29;20043;-70
2022/08/12 10:01:01;;;;;;;9.43;8.82;;;;;;;;;;4907290;29;20304;-71
2022/08/12 10:03:30;;;;;;;9.30;8.70;;;;;;;;;;4912434;29;20036;-70
2022/08/12 10:05:57;;;;;;;9.98;9.15;;;;;;;;;;4911562;29;20523;-71
2022/08/12 10:08:29;;;;;;;9.80;8.85;;;;;;;;;;4911205;29;20484;-68
2022/08/12 10:13:41;;;;;;;9.55;8.85;;;;;;;;;;4910186;29;20107;-69
2022/08/12 10:16:13;;;;;;;11.00;8.90;;;;;;;;;;4909755;29;20036;-70
2022/08/12 10:18:41;;;;;;;9.27;8.68;;;;;;;;;;4908542;29;20024;-70
2022/08/12 10:21:12;;;;;;;8.88;8.13;;;;;;;;;;4910615;29;20099;-70
2022/08/12 10:23:39;;;;;;;9.15;8.32;;;;;;;;;;4907277;29;20126;-70
2022/08/12 10:31:34;;;;;;;8.88;8.18;;;;;;;;;;4907176;29;20036;-69
2022/08/12 10:33:59;;;;;;;8.55;8.00;;;;;;;;;;4906191;29;20502;-70
2022/08/12 10:36:25;;;;;;;8.63;7.82;;;;;;;;;;4912810;29;20115;-70
2022/08/12 10:38:51;;;;;;;9.88;8.90;;;;;;;;;;4910693;29;20044;-70
2022/08/12 10:44:04;;;;;;;8.68;7.82;;;;;;;;;;4910433;29;20059;-70
2022/08/12 10:46:30;;;;;;;8.23;7.43;;;;;;;;;;4912610;29;20043;-70
2022/08/12 10:48:56;;;;;;;8.77;7.90;;;;;;;;;;4910609;29;20036;-69
2022/08/12 10:51:22;;;;;;;8.20;7.70;;;;;;;;;;4912933;29;20044;-69
2022/08/12 10:53:48;;;;;;;8.35;7.78;;;;;;;;;;4912697;29;20043;-69
2022/08/12 10:56:14;;;;;;;9.40;8.75;;;;;;;;;;4911849;29;20040;-69
2022/08/12 10:58:40;;;;;;;9.02;8.43;;;;;;;;;;4912237;29;20028;-68
2022/08/12 11:01:09;;;;;;;9.57;8.68;;;;;;;;;;4913105;29;20059;-70
2022/08/12 11:03:39;;;;;;;9.77;9.05;;;;;;;;;;4911068;29;20051;-70
2022/08/12 11:06:06;;;;;;;9.75;9.02;;;;;;;;;;4911613;29;20575;-69
2022/08/12 11:08:34;;;;;;;9.57;8.77;;;;;;;;;;4911822;29;20036;-70
2022/08/12 11:11:00;;;;;;;;;;;;;;;;;;4913260;29;20071;-70
2022/08/12 11:13:26;;;;;;;9.00;8.50;;;;;;;;;;4911929;29;20251;-70
2022/08/12 11:15:54;;;;;;;9.23;8.63;;;;;;;;;;4911079;29;20083;-70
2022/08/12 11:18:21;;;;;;;9.50;8.90;;;;;;;;;;4912371;29;20040;-69
2022/08/12 11:20:47;;;;;;;9.30;8.57;;;;;;;;;;4911877;29;20263;-70
2022/08/12 11:23:13;;;;;;;9.70;8.88;;;;;;;;;;4912618;29;20036;-69
2022/08/12 11:25:41;;;;;;;9.15;8.60;;;;;;;;;;4910888;29;20048;-69
2022/08/12 11:28:06;;;;;;;9.63;8.80;;;;;;;;;;4910978;29;20073;-69
2022/08/12 11:30:32;;;;;;;9.00;8.35;;;;;;;;;;4908201;29;20112;-70
2022/08/12 11:32:58;;;;;;;9.52;8.82;;;;;;;;;;4909425;29;20782;-70
2022/08/12 11:35:23;;;;;;;9.82;8.93;;;;;;;;;;4909890;29;20028;-67
2022/08/12 11:37:49;;;;;;;10.00;9.30;;;;;;;;;;4909817;29;20381;-69
2022/08/12 11:40:14;;;;;;;9.90;9.30;;;;;;;;;;4908738;29;20040;-70
2022/08/12 11:42:40;;;;;;;9.80;9.18;;;;;;;;;;4909568;29;20036;-70
2022/08/12 11:45:06;;;;;;;10.52;9.63;;;;;;;;;;4909204;29;20063;-70
2022/08/12 11:47:32;;;;;;;9.57;8.98;;;;;;;;;;4909722;29;20051;-70
2022/08/12 11:49:57;;;;;;;9.23;8.48;;;;;;;;;;4907703;29;20048;-69
2022/08/12 11:52:23;;;;;;;10.80;9.77;;;;;;;;;;4909416;29;20487;-70
2022/08/12 11:54:49;;;;;;;10.57;9.88;;;;;;;;;;4909523;29;20354;-69
2022/08/12 11:57:14;;;;;;;10.40;9.65;;;;;;;;;;4910489;29;20040;-69
2022/08/12 11:59:40;;;;;;;9.57;8.98;;;;;;;;;;4907217;29;20064;-69
2022/08/12 12:02:06;;;;;;;10.13;9.45;;;;;;;;;;4909752;29;20142;-69
2022/08/12 12:04:32;;;;;;;9.75;9.15;;;;;;;;;;4909403;29;20064;-69
2022/08/12 12:06:57;;;;;;;10.55;9.75;;;;;;;;;;4910174;29;20086;-68
2022/08/12 12:09:24;;;;;;;10.20;9.60;;;;;;;;;;4907148;29;20036;-69
2022/08/12 12:11:49;;;;;;;10.32;9.68;;;;;;;;;;4909001;29;20237;-70
2022/08/12 12:14:15;;;;;;;9.43;8.75;;;;;;;;;;4909311;29;20090;-69
2022/08/12 12:16:41;;;;;;;9.88;9.18;;;;;;;;;;4902198;29;20455;-68
2022/08/12 12:19:09;;;;;;;10.25;9.55;;;;;;;;;;4908336;29;20422;-69
2022/08/12 12:21:35;;;;;;;10.88;9.93;;;;;;;;;;4905736;29;20039;-67
2022/08/12 12:24:01;;;;;;;10.00;9.20;;;;;;;;;;4909072;29;20046;-67
2022/08/12 12:26:27;;;;;;;9.75;9.15;;;;;;;;;;4903002;29;20044;-69
2022/08/12 12:28:52;;;;;;;10.18;9.32;;;;;;;;;;4909178;29;20641;-68
2022/08/12 12:31:18;;;;;;;10.32;9.60;;;;;;;;;;4909242;29;20126;-69
2022/08/12 12:33:44;;;;;;;9.52;8.93;;;;;;;;;;4907320;29;20071;-70
2022/08/12 12:36:09;;;;;;;10.40;9.60;;;;;;;;;;4910756;29;20036;-70
2022/08/12 12:38:35;;;;;;;10.10;9.50;;;;;;;;;;4906109;29;20115;-68
2022/08/12 12:41:00;;;;;;;10.10;9.30;;;;;;;;;;4908330;29;20119;-70
2022/08/12 12:43:26;;;;;;;9.85;9.13;;;;;;;;;;4906649;29;20047;-69
2022/08/12 12:45:52;;;;;;;9.77;9.13;;;;;;;;;;4908925;29;20032;-68
2022/08/12 12:48:19;;;;;;;9.70;9.00;;;;;;;;;;4908366;29;20068;-70
2022/08/12 12:51:14;;;;;;;10.70;9.70;;;;;;;;;;4907017;29;20043;-67
2022/08/12 12:53:34;;;;;;;10.30;9.35;;;;;;;;;;4907072;29;20044;-68
2022/08/12 12:56:00;;;;;;;10.68;9.63;;;;;;;;;;4906902;29;20575;-70
2022/08/12 12:58:26;;;;;;;10.38;9.45;;;;;;;;;;4908406;29;20087;-70
2022/08/12 13:00:54;;;;;;;10.85;9.77;;;;;;;;;;4908554;29;20036;-67
2022/08/12 13:03:20;;;;;;;10.20;9.40;;;;;;;;;;4908372;29;20044;-67
2022/08/12 13:05:46;;;;;;;10.52;9.55;;;;;;;;;;4907803;29;20138;-70
2022/08/12 13:08:23;;;;;;;9.98;9.35;;;;;;;;;;4908076;29;20470;-70
2022/08/12 13:10:50;;;;;;;9.48;8.73;;;;;;;;;;4908523;29;20050;-68
2022/08/12 13:13:18;;;;;;;10.38;8.70;;;;;;;;;;4906563;29;20039;-69
2022/08/12 13:15:48;;;;;;;11.00;8.85;;;;;;;;;;4908236;29;20484;-66
2022/08/12 13:18:15;;;;;;;10.00;9.27;;;;;;;;;;4907744;29;20067;-69
2022/08/12 13:20:44;;;;;;;10.33;9.40;;;;;;;;;;4908645;29;20095;-66
2022/08/12 13:23:10;;;;;;;;;;;;;;;;;;4907408;29;20032;-70
2022/08/12 13:25:35;;;;;;;9.82;9.23;;;;;;;;;;4907954;29;19915;-69
2022/08/12 13:28:02;;;;;;;10.27;9.48;;;;;;;;;;4908894;29;20496;-69
2022/08/12 13:30:29;;;;;;;10.18;9.57;;;;;;;;;;4906196;29;20107;-69
2022/08/12 13:32:58;;;;;;;10.43;9.70;;;;;;;;;;4908156;29;20116;-68
2022/08/12 13:35:26;;;;;;;10.55;9.85;;;;;;;;;;4908106;29;20047;-69
2022/08/12 13:37:54;;;;;;;10.07;9.45;;;;;;;;;;4909838;29;20047;-68
2022/08/12 13:40:24;;;;;;;10.07;9.27;;;;;;;;;;4910754;29;20253;-68
2022/08/12 13:42:51;;;;;;;10.30;9.60;;;;;;;;;;4910768;29;20091;-69
2022/08/12 13:45:17;;;;;;;9.60;9.00;;;;;;;;;;4911691;29;20040;-69
2022/08/12 13:48:16;;;;;;;9.63;9.02;;;;;;;;;;4910248;29;20425;-69
2022/08/12 13:50:42;;;;;;;10.75;9.43;;;;;;;;;;4906830;29;20072;-67
2022/08/12 13:53:13;;;;;;;9.02;8.43;;;;;;;;;;4912101;29;20044;-67
2022/08/12 13:55:44;;;;;;;9.57;8.88;;;;;;;;;;4911519;29;20123;-71
2022/08/12 13:58:17;;;;;;;9.52;8.88;;;;;;;;;;4923892;23;20219;-63
2022/08/12 14:00:49;;;;;;;10.30;9.40;;;;;;;;;;4905088;29;20043;-63
2022/08/12 14:03:20;;;;;;;10.00;9.23;;;;;;;;;;4902759;29;20602;-64
2022/08/12 14:05:46;;;;;;;9.48;8.98;;;;;;;;;;4903995;29;20504;-63
2022/08/12 14:08:13;;;;;;;9.18;8.57;;;;;;;;;;4901456;29;20048;-63
2022/08/12 14:10:48;;;;;;;11.20;9.27;;;;;;;;;;4901010;29;20036;-64
2022/08/12 14:13:18;;;;;;;10.00;9.05;;;;;;;;;;4899789;29;20111;-65
2022/08/12 14:15:53;;;;;;;9.68;8.98;;;;;;;;;;4905634;29;20492;-63
2022/08/12 14:18:21;;;;;;;9.07;8.38;;;;;;;;;;4906544;29;20036;-62
2022/08/12 14:20:50;;;;;;;9.45;8.82;;;;;;;;;;4906051;29;20515;-62
2022/08/12 14:23:18;;;;;;;9.45;8.85;;;;;;;;;;4899870;29;20127;-62
2022/08/12 14:25:45;;;;;;;9.68;8.85;;;;;;;;;;4904382;29;20122;-62
2022/08/12 14:28:15;;;;;;;9.63;8.77;;;;;;;;;;4904102;29;20094;-62
2022/08/12 14:30:47;;;;;;;10.07;9.20;;;;;;;;;;4900709;29;20040;-62
2022/08/12 14:33:14;;;;;;;10.02;9.25;;;;;;;;;;4906542;29;20048;-62
2022/08/12 14:35:41;;;;;;;9.27;8.68;;;;;;;;;;4905038;29;20063;-62
2022/08/12 14:38:24;;;;;;;9.80;9.10;;;;;;;;;;4904394;29;20095;-62
2022/08/12 14:40:58;;;;;;;10.13;9.23;;;;;;;;;;4899765;29;20514;-62
2022/08/12 14:43:32;;;;;;;8.82;8.32;;;;;;;;;;4906999;29;20076;-62
2022/08/12 14:46:00;;;;;;;9.27;8.77;;;;;;;;;;4900065;29;20119;-62
2022/08/12 14:48:28;;;;;;;;;;;;;;;;;;4902779;29;20580;-62
2022/08/12 14:50:54;;;;;;;9.90;8.93;;;;;;;;;;4902168;29;20415;-62
2022/08/12 14:53:20;;;;;;;9.60;8.75;;;;;;;;;;4902857;29;20050;-62
2022/08/12 14:55:48;;;;;;;9.25;8.75;;;;;;;;;;4902445;29;20048;-65
2022/08/12 14:58:18;;;;;;;9.67;8.83;;;;;;;;;;4906497;29;20043;-65
2022/08/12 15:03:30;;;;;;;9.50;8.95;;;;;;;;;;4900607;29;20160;-65
2022/08/12 15:06:02;;;;;;;9.52;8.90;;;;;;;;;;4899707;29;20040;-62
2022/08/12 15:08:33;;;;;;;9.90;9.07;;;;;;;;;;4900501;29;20035;-62
2022/08/12 15:11:01;;;;;;;9.23;8.45;;;;;;;;;;4906123;29;20039;-65
2022/08/12 15:13:30;;;;;;;9.73;8.83;;;;;;;;;;4901949;29;20032;-65
2022/08/12 15:15:57;;;;;;;;;;;;;;;;;;4903270;29;20312;-62
2022/08/12 15:18:24;;;;;;;9.73;9.02;;;;;;;;;;4903507;29;19923;-64
2022/08/12 15:20:51;;;;;;;10.25;9.55;;;;;;;;;;4903356;29;20047;-65
2022/08/12 15:23:17;;;;;;;9.43;8.82;;;;;;;;;;4903840;29;20517;-62
2022/08/12 15:25:44;;;;;;;9.65;8.75;;;;;;;;;;4904819;29;20440;-62
2022/08/12 15:28:10;;;;;;;9.90;8.98;;;;;;;;;;4904867;29;20036;-65
2022/08/12 15:30:37;;;;;;;9.77;9.18;;;;;;;;;;4902957;29;20039;-62
2022/08/12 15:33:08;;;;;;;11.80;9.33;;;;;;;;;;4900819;29;20033;-64
2022/08/12 15:35:35;;;;;;;9.75;9.10;;;;;;;;;;4902925;29;20339;-63
2022/08/12 15:38:06;;;;;;;10.30;9.40;;;;;;;;;;4903045;29;20039;-63
2022/08/12 15:40:37;;;;;;;9.88;9.18;;;;;;;;;;4900891;29;20028;-63
2022/08/12 15:43:04;;;;;;;9.95;9.35;;;;;;;;;;4902420;29;20119;-62
2022/08/12 15:45:31;;;;;;;10.30;9.38;;;;;;;;;;4902912;29;20443;-62
2022/08/12 15:47:57;;;;;;;10.40;9.60;;;;;;;;;;4899433;29;20059;-63
2022/08/12 15:50:25;;;;;;;9.50;8.55;;;;;;;;;;4899884;29;20045;-63
2022/08/12 15:52:52;;;;;;;9.43;8.50;;;;;;;;;;4899438;29;20043;-63
2022/08/12 15:55:19;;;;;;;9.48;8.65;;;;;;;;;;4902308;29;20087;-62
2022/08/12 15:57:52;;;;;;;9.70;8.80;;;;;;;;;;4903306;29;20040;-63
2022/08/12 16:00:30;;;;;;;8.38;7.82;;;;;;;;;;4903142;29;20040;-63
2022/08/12 16:02:58;;;;;;;8.45;7.80;;;;;;;;;;4901693;29;20551;-63
2022/08/12 16:05:26;;;;;;;9.10;8.23;;;;;;;;;;4906283;29;20119;-63
2022/08/12 16:07:54;;;;;;;8.98;8.15;;;;;;;;;;4902656;29;20036;-62
2022/08/12 16:10:22;;;;;;;8.70;8.10;;;;;;;;;;4901666;29;20088;-62
2022/08/12 16:12:49;;;;;;;9.18;8.55;;;;;;;;;;4901094;29;20063;-62
2022/08/12 16:15:17;;;;;;;9.10;8.35;;;;;;;;;;4902306;29;20036;-62
2022/08/12 16:17:45;;;;;;;9.25;8.38;;;;;;;;;;4901091;29;20119;-63
2022/08/12 16:20:25;;;;;;;9.15;8.38;;;;;;;;;;4899896;29;20044;-63
2022/08/12 16:22:58;;;;;;;9.00;8.45;;;;;;;;;;4901317;29;20045;-63
2022/08/12 16:25:26;;;;;;;9.10;8.35;;;;;;;;;;4906939;29;20048;-63
2022/08/12 16:27:53;;;;;;;9.18;8.55;;;;;;;;;;4901286;29;20496;-63
2022/08/12 16:30:21;;;;;;;8.85;8.20;;;;;;;;;;4903681;29;20061;-63
2022/08/12 16:32:48;;;;;;;8.50;8.00;;;;;;;;;;4900875;29;20037;-64